createdAt,value
2019-05-28T00:00:00.716Z,3.77
2019-05-28T00:02:15.456Z,3.67
2019-05-28T00:04:42.858Z,3.53
2019-05-28T00:07:09.910Z,3.90
2019-05-28T00:09:36.968Z,3.50
2019-05-28T00:12:04.120Z,3.50
2019-05-28T00:14:31.277Z,3.77
2019-05-28T00:16:59.333Z,4.03
2019-05-28T00:19:26.417Z,3.70
2019-05-28T00:21:53.473Z,4.03
2019-05-28T00:24:20.543Z,3.63
2019-05-28T00:26:47.600Z,3.63
2019-05-28T00:29:14.660Z,3.67
2019-05-28T00:31:41.736Z,3.90
2019-05-28T00:34:08.807Z,3.97
2019-05-28T00:36:37.072Z,3.50
2019-05-28T00:39:06.558Z,3.87
2019-05-28T00:41:33.600Z,3.70
2019-05-28T00:44:00.676Z,4.10
2019-05-28T00:46:27.844Z,3.73
2019-05-28T00:48:55.016Z,3.90
2019-05-28T00:51:22.101Z,3.87
2019-05-28T00:53:49.301Z,3.53
2019-05-28T00:56:16.560Z,3.47
2019-05-28T00:58:44.041Z,3.63
2019-05-28T01:01:11.263Z,3.93
2019-05-28T01:03:38.840Z,3.70
2019-05-28T01:06:05.900Z,3.33
2019-05-28T01:08:33.102Z,3.80
2019-05-28T01:11:00.185Z,4.03
2019-05-28T01:13:27.357Z,3.77
2019-05-28T01:15:54.519Z,3.80
2019-05-28T01:18:21.680Z,4.33
2019-05-28T01:20:48.837Z,4.13
2019-05-28T01:23:16.000Z,3.97
2019-05-28T01:25:43.180Z,4.47
2019-05-28T01:28:10.331Z,4.10
2019-05-28T01:30:53.951Z,4.70
2019-05-28T01:33:06.487Z,4.13
2019-05-28T01:35:33.545Z,4.47
2019-05-28T01:38:00.592Z,4.50
2019-05-28T01:40:27.648Z,4.47
2019-05-28T01:42:54.726Z,4.60
2019-05-28T01:45:21.884Z,4.53
2019-05-28T01:47:48.955Z,5.03
2019-05-28T01:50:16.235Z,4.50
2019-05-28T01:52:43.407Z,4.80
2019-05-28T01:55:10.679Z,5.07
2019-05-28T01:57:37.736Z,4.83
2019-05-28T02:00:05.874Z,4.47
2019-05-28T02:02:33.052Z,5.17
2019-05-28T02:05:00.524Z,4.50
2019-05-28T02:07:27.591Z,4.80
2019-05-28T02:09:54.658Z,4.90
2019-05-28T02:12:21.723Z,4.77
2019-05-28T02:14:48.802Z,5.60
2019-05-28T02:17:15.956Z,5.00
2019-05-28T02:19:43.014Z,5.13
2019-05-28T02:22:10.091Z,4.83
2019-05-28T02:24:37.174Z,5.60
2019-05-28T02:27:04.361Z,5.50
2019-05-28T02:29:31.527Z,5.10
2019-05-28T02:31:58.603Z,5.23
2019-05-28T02:34:25.681Z,5.40
2019-05-28T02:36:52.777Z,5.37
2019-05-28T02:39:19.915Z,5.40
2019-05-28T02:41:47.043Z,5.50
2019-05-28T02:44:14.196Z,5.70
2019-05-28T02:46:41.270Z,5.80
2019-05-28T02:49:08.328Z,5.73
2019-05-28T02:51:36.489Z,6.03
2019-05-28T02:54:04.067Z,5.77
2019-05-28T02:56:31.750Z,5.80
2019-05-28T02:58:59.867Z,6.27
2019-05-28T03:01:42.986Z,5.60
2019-05-28T03:03:57.096Z,6.07
2019-05-28T03:06:24.977Z,5.53
2019-05-28T03:08:54.128Z,5.50
2019-05-28T03:11:21.311Z,5.63
2019-05-28T03:13:49.088Z,5.40
2019-05-28T03:16:18.656Z,5.20
2019-05-28T03:18:49.019Z,5.40
2019-05-28T03:21:16.480Z,5.50
2019-05-28T03:23:43.925Z,4.80
2019-05-28T03:26:11.193Z,5.50
2019-05-28T03:28:38.352Z,5.50
2019-05-28T03:31:05.520Z,4.90
2019-05-28T03:33:32.681Z,4.97
2019-05-28T03:36:02.656Z,4.90
2019-05-28T03:38:31.333Z,5.20
2019-05-28T03:40:58.405Z,4.73
2019-05-28T03:43:25.456Z,5.00
2019-05-28T03:45:52.528Z,4.70
2019-05-28T03:48:19.688Z,5.03
2019-05-28T03:50:46.747Z,5.03
2019-05-28T03:53:13.808Z,4.30
2019-05-28T03:55:41.977Z,4.20
2019-05-28T03:58:09.060Z,4.47
2019-05-28T04:00:36.227Z,4.90
2019-05-28T04:03:03.442Z,4.70
2019-05-28T04:05:30.604Z,5.27
2019-05-28T04:07:57.675Z,4.93
2019-05-28T04:10:24.736Z,4.47
2019-05-28T04:12:51.808Z,4.83
2019-05-28T04:15:20.772Z,4.67
2019-05-28T04:17:49.728Z,4.83
2019-05-28T04:20:18.937Z,4.50
2019-05-28T04:22:46.079Z,4.37
2019-05-28T04:25:13.352Z,4.63
2019-05-28T04:27:40.419Z,4.67
2019-05-28T04:30:11.672Z,5.03
2019-05-28T04:32:42.651Z,5.60
2019-05-28T04:35:09.933Z,6.00
2019-05-28T04:37:37.148Z,5.63
2019-05-28T04:40:05.604Z,7.10
2019-05-28T04:42:32.648Z,6.60
2019-05-28T04:44:59.707Z,6.93
2019-05-28T04:47:26.752Z,4.87
2019-05-28T04:49:53.819Z,5.40
2019-05-28T04:52:20.936Z,6.17
2019-05-28T04:54:48.301Z,4.33
2019-05-28T04:57:15.343Z,4.43
2019-05-28T04:59:42.417Z,3.77
2019-05-28T05:02:09.482Z,3.87
2019-05-28T05:04:36.547Z,4.60
2019-05-28T05:07:03.607Z,4.37
2019-05-28T05:09:30.660Z,4.53
2019-05-28T05:11:57.728Z,4.83
2019-05-28T05:14:24.796Z,5.10
2019-05-28T05:16:51.849Z,4.40
2019-05-28T05:19:19.007Z,5.00
2019-05-28T05:21:46.065Z,4.60
2019-05-28T05:24:14.541Z,4.67
2019-05-28T05:26:41.596Z,4.70
2019-05-28T05:29:08.795Z,5.37
2019-05-28T05:31:35.848Z,4.30
2019-05-28T05:34:03.123Z,4.53
2019-05-28T05:36:30.288Z,4.60
2019-05-28T05:38:57.361Z,5.20
2019-05-28T05:41:25.736Z,4.87
2019-05-28T05:43:52.795Z,5.80
2019-05-28T05:46:19.852Z,5.23
2019-05-28T05:48:46.905Z,4.50
2019-05-28T05:51:13.968Z,3.87
2019-05-28T05:53:41.028Z,4.43
2019-05-28T05:56:08.119Z,4.50
2019-05-28T05:58:35.172Z,4.40
2019-05-28T06:01:02.334Z,4.30
2019-05-28T06:03:39.709Z,2.80
2019-05-28T06:05:58.360Z,3.00
2019-05-28T06:09:19.718Z,3.10
2019-05-28T06:11:46.788Z,3.80
2019-05-28T06:14:13.855Z,3.93
2019-05-28T06:16:40.932Z,4.00
2019-05-28T06:19:08.023Z,5.03
2019-05-28T06:21:35.072Z,6.50
2019-05-28T06:24:02.286Z,6.10
2019-05-28T06:26:29.379Z,4.90
2019-05-28T06:28:56.526Z,5.50
2019-05-28T06:31:23.584Z,7.27
2019-05-28T06:33:56.619Z,6.60
2019-05-28T06:36:19.657Z,8.03
2019-05-28T06:38:46.723Z,7.87
2019-05-28T06:41:13.784Z,8.47
2019-05-28T06:43:40.843Z,7.77
2019-05-28T06:46:08.018Z,8.30
2019-05-28T06:48:35.081Z,8.17
2019-05-28T06:51:02.244Z,8.53
2019-05-28T06:53:29.307Z,8.30
2019-05-28T06:55:56.484Z,9.50
2019-05-28T06:58:37.897Z,8.93
2019-05-28T07:00:52.566Z,7.70
2019-05-28T07:03:19.692Z,8.63
2019-05-28T07:05:46.737Z,10.90
2019-05-28T07:08:13.796Z,10.67
2019-05-28T07:10:56.629Z,10.10
2019-05-28T07:13:10.623Z,8.63
2019-05-28T07:15:37.783Z,9.03
2019-05-28T07:18:04.848Z,7.37
2019-05-28T07:20:31.910Z,7.83
2019-05-28T07:22:59.316Z,7.83
2019-05-28T07:25:26.488Z,6.83
2019-05-28T07:28:09.698Z,7.30
2019-05-28T07:30:24.447Z,6.47
2019-05-28T07:32:51.971Z,6.03
2019-05-28T07:35:19.020Z,5.90
2019-05-28T07:37:46.099Z,6.37
2019-05-28T07:40:29.960Z,5.90
2019-05-28T07:42:42.825Z,4.57
2019-05-28T07:45:10.405Z,4.50
2019-05-28T07:47:37.571Z,4.37
2019-05-28T07:50:06.239Z,4.87
2019-05-28T07:52:33.288Z,4.60
2019-05-28T07:55:00.444Z,4.17
2019-05-28T07:57:27.500Z,4.87
2019-05-28T07:59:54.569Z,5.17
2019-05-28T08:02:22.161Z,5.03
2019-05-28T08:04:49.313Z,3.63
2019-05-28T08:07:16.528Z,4.10
2019-05-28T08:09:43.576Z,4.50
2019-05-28T08:12:10.631Z,4.77
2019-05-28T08:14:37.683Z,2.90
2019-05-28T08:17:04.847Z,2.90
2019-05-28T08:19:31.906Z,3.20
2019-05-28T08:21:59.295Z,3.07
2019-05-28T08:24:26.423Z,3.00
2019-05-28T08:26:53.585Z,3.43
2019-05-28T08:29:20.632Z,3.47
2019-05-28T08:31:47.684Z,3.97
2019-05-28T08:34:19.135Z,3.40
2019-05-28T08:36:43.909Z,3.43
2019-05-28T08:39:11.070Z,4.43
2019-05-28T08:41:38.212Z,3.57
2019-05-28T08:44:05.268Z,4.00
2019-05-28T08:46:32.432Z,3.47
2019-05-28T08:48:59.506Z,3.83
2019-05-28T08:51:26.580Z,4.27
2019-05-28T08:53:53.625Z,4.53
2019-05-28T08:56:20.788Z,4.00
2019-05-28T08:58:48.152Z,4.10
2019-05-28T09:01:15.212Z,3.90
2019-05-28T09:03:42.273Z,4.07
2019-05-28T09:06:09.344Z,3.90
2019-05-28T09:08:39.842Z,4.80
2019-05-28T09:11:05.466Z,4.57
2019-05-28T09:13:32.604Z,5.10
2019-05-28T09:15:59.660Z,5.00
2019-05-28T09:18:27.165Z,5.40
2019-05-28T09:20:54.272Z,4.93
2019-05-28T09:23:21.395Z,4.40
2019-05-28T09:25:48.540Z,5.33
2019-05-28T09:28:29.387Z,4.93
2019-05-28T09:30:44.675Z,4.77
2019-05-28T09:33:11.799Z,5.07
2019-05-28T09:35:44.634Z,4.40
2019-05-28T09:38:08.160Z,4.17
2019-05-28T09:40:49.179Z,4.00
2019-05-28T09:43:04.176Z,4.07
2019-05-28T09:45:31.244Z,4.37
2019-05-28T09:47:58.397Z,4.60
2019-05-28T09:50:30.459Z,4.70
2019-05-28T09:52:55.524Z,5.00
2019-05-28T09:55:22.981Z,4.63
2019-05-28T09:57:50.051Z,5.13
2019-05-28T10:00:20.984Z,5.17
2019-05-28T10:02:48.078Z,4.70
2019-05-28T10:05:17.098Z,5.20
2019-05-28T10:07:44.146Z,5.07
2019-05-28T10:10:11.424Z,4.93
2019-05-28T10:12:38.564Z,4.80
2019-05-28T10:15:06.473Z,5.50
2019-05-28T10:17:33.572Z,5.57
2019-05-28T10:20:00.717Z,5.27
2019-05-28T10:22:27.768Z,5.80
2019-05-28T10:24:54.865Z,6.20
2019-05-28T10:27:21.940Z,6.80
2019-05-28T10:29:49.003Z,5.40
2019-05-28T10:32:16.055Z,5.73
2019-05-28T10:34:59.996Z,4.93
2019-05-28T10:37:12.245Z,4.63
2019-05-28T10:39:39.286Z,5.20
2019-05-28T10:42:06.455Z,4.83
2019-05-28T10:44:33.625Z,6.00
2019-05-28T10:47:00.684Z,5.50
2019-05-28T10:49:27.784Z,4.90
2019-05-28T10:51:54.889Z,4.70
2019-05-28T10:54:21.937Z,4.30
2019-05-28T10:56:48.992Z,4.30
2019-05-28T10:59:16.058Z,3.97
2019-05-28T11:01:43.126Z,4.33
2019-05-28T11:04:10.193Z,4.00
2019-05-28T11:06:50.994Z,3.93
2019-05-28T11:09:08.846Z,3.83
2019-05-28T11:11:36.115Z,3.87
2019-05-28T11:14:03.883Z,4.00
2019-05-28T11:16:30.966Z,4.23
2019-05-28T11:18:58.014Z,4.70
2019-05-28T11:21:25.060Z,4.67
2019-05-28T11:23:52.112Z,4.57
2019-05-28T11:26:19.380Z,4.33
2019-05-28T11:28:46.639Z,5.37
2019-05-28T11:31:13.804Z,4.43
2019-05-28T11:33:40.887Z,4.27
2019-05-28T11:36:07.941Z,3.97
2019-05-28T11:38:35.010Z,4.20
2019-05-28T11:41:02.068Z,4.50
2019-05-28T11:43:29.115Z,4.40
2019-05-28T11:45:56.296Z,4.30
2019-05-28T11:48:23.348Z,4.00
2019-05-28T11:50:50.413Z,3.80
2019-05-28T11:53:17.461Z,4.60
2019-05-28T11:55:45.791Z,4.17
2019-05-28T11:58:12.840Z,4.87
2019-05-28T12:03:13.158Z,5.00
2019-05-28T12:05:40.316Z,4.27
2019-05-28T12:08:07.368Z,4.90
2019-05-28T12:10:34.624Z,4.70
2019-05-28T12:13:01.677Z,5.27
2019-05-28T12:15:28.848Z,5.17
2019-05-28T12:17:56.102Z,5.10
2019-05-28T12:20:23.561Z,5.50
2019-05-28T12:23:09.149Z,6.30
2019-05-28T12:25:20.844Z,5.83
2019-05-28T12:27:47.898Z,6.80
2019-05-28T12:30:18.882Z,6.20
2019-05-28T12:32:46.331Z,6.90
2019-05-28T12:35:27.460Z,7.60
2019-05-28T12:37:49.384Z,7.63
2019-05-28T12:40:13.833Z,8.17
2019-05-28T12:42:40.892Z,7.97
2019-05-28T12:45:10.203Z,7.43
2019-05-28T12:47:37.636Z,9.93
2019-05-28T12:50:18.570Z,8.70
2019-05-28T12:52:34.249Z,6.43
2019-05-28T12:55:01.526Z,7.83
2019-05-28T12:57:28.575Z,7.73
2019-05-28T12:59:56.944Z,7.03
2019-05-28T13:02:23.993Z,7.03
2019-05-28T13:04:51.132Z,5.97
2019-05-28T13:07:18.193Z,7.47
2019-05-28T13:09:48.906Z,7.23
2019-05-28T13:12:14.233Z,12.40
2019-05-28T13:14:41.401Z,12.03
2019-05-28T13:17:08.566Z,9.37
2019-05-28T13:19:35.624Z,9.17
2019-05-28T13:22:02.801Z,12.77
2019-05-28T13:24:29.860Z,14.23
2019-05-28T13:26:56.920Z,13.23
2019-05-28T13:29:24.096Z,9.83
2019-05-28T13:31:51.144Z,11.90
2019-05-28T13:34:18.214Z,12.83
2019-05-28T13:36:45.249Z,11.67
2019-05-28T13:39:12.297Z,11.63
2019-05-28T13:41:39.468Z,11.97
2019-05-28T13:44:08.074Z,8.87
2019-05-28T13:46:36.577Z,8.90
2019-05-28T13:49:03.862Z,8.20
2019-05-28T13:51:30.904Z,8.43
2019-05-28T13:53:57.953Z,7.30
2019-05-28T13:56:25.025Z,5.63
2019-05-28T13:58:52.182Z,4.93
2019-05-28T14:01:19.337Z,4.60
2019-05-28T14:03:46.393Z,4.50
2019-05-28T14:06:13.447Z,4.17
2019-05-28T14:08:46.448Z,4.70
2019-05-28T14:11:09.574Z,3.90
2019-05-28T14:13:36.719Z,3.53
2019-05-28T14:16:04.257Z,3.67
2019-05-28T14:18:32.543Z,3.80
2019-05-28T14:20:59.608Z,4.23
2019-05-28T14:23:26.671Z,3.10
2019-05-28T14:25:53.732Z,2.70
2019-05-28T14:28:20.782Z,2.90
2019-05-28T14:30:59.196Z,2.50
2019-05-28T14:33:16.797Z,2.73
2019-05-28T14:35:43.853Z,2.63
2019-05-28T14:38:10.905Z,2.60
2019-05-28T14:40:38.096Z,2.80
2019-05-28T14:43:05.324Z,2.90
2019-05-28T14:45:32.530Z,3.10
2019-05-28T14:47:59.642Z,3.30
2019-05-28T14:50:26.687Z,2.97
2019-05-28T14:52:53.885Z,2.93
2019-05-28T14:55:21.324Z,2.50
2019-05-28T14:57:48.599Z,2.20
2019-05-28T15:00:17.660Z,1.93
2019-05-28T15:02:45.140Z,1.90
2019-05-28T15:05:13.492Z,1.70
2019-05-28T15:07:40.566Z,2.00
2019-05-28T15:10:07.933Z,1.73
2019-05-28T15:12:35.243Z,1.77
2019-05-28T15:15:02.613Z,1.90
2019-05-28T15:17:30.974Z,2.10
2019-05-28T15:19:58.064Z,2.20
2019-05-28T15:22:25.133Z,2.20
2019-05-28T15:24:52.244Z,2.30
2019-05-28T15:27:19.517Z,2.40
2019-05-28T15:29:46.681Z,1.93
2019-05-28T15:32:13.783Z,2.10
2019-05-28T15:34:40.853Z,2.20
2019-05-28T15:37:08.003Z,2.10
2019-05-28T15:39:39.535Z,2.60
2019-05-28T15:42:04.224Z,2.50
2019-05-28T15:44:31.321Z,2.27
2019-05-28T15:46:58.450Z,2.60
2019-05-28T15:49:26.812Z,2.40
2019-05-28T15:52:06.970Z,2.90
2019-05-28T15:54:23.156Z,3.10
2019-05-28T15:56:50.229Z,3.20
2019-05-28T15:59:17.374Z,3.27
2019-05-28T16:01:45.836Z,3.50
2019-05-28T16:04:12.893Z,3.53
2019-05-28T16:06:40.079Z,3.90
2019-05-28T16:09:07.445Z,3.67
2019-05-28T16:11:34.708Z,4.00
2019-05-28T16:14:02.072Z,3.73
2019-05-28T16:16:29.665Z,3.60
2019-05-28T16:18:56.716Z,4.40
2019-05-28T16:21:23.790Z,4.23
2019-05-28T16:23:50.847Z,4.30
2019-05-28T16:26:17.952Z,4.53
2019-05-28T16:28:45.025Z,4.47
2019-05-28T16:31:13.387Z,4.70
2019-05-28T16:33:41.068Z,4.17
2019-05-28T16:36:08.137Z,4.60
2019-05-28T16:38:35.193Z,4.73
2019-05-28T16:41:02.260Z,4.13
2019-05-28T16:43:29.325Z,4.17
2019-05-28T16:45:56.392Z,4.17
2019-05-28T16:48:23.458Z,4.20
2019-05-28T16:50:50.505Z,11.83
2019-05-28T16:53:17.620Z,10.60
2019-05-28T16:55:44.763Z,14.70
2019-05-28T16:58:11.893Z,24.07
2019-05-28T17:00:38.984Z,15.33
2019-05-28T17:03:06.198Z,24.77
2019-05-28T17:05:33.313Z,34.43
2019-05-28T17:08:00.369Z,19.77
2019-05-28T17:10:33.135Z,38.07
2019-05-28T17:12:56.432Z,24.40
2019-05-28T17:15:24.140Z,22.03
2019-05-28T17:17:51.203Z,32.07
2019-05-28T17:20:19.045Z,17.47
2019-05-28T17:22:46.321Z,24.70
2019-05-28T17:25:13.685Z,23.60
2019-05-28T17:27:40.852Z,25.00
2019-05-28T17:32:40.398Z,45.73
2019-05-28T17:35:09.267Z,36.30
2019-05-28T17:37:36.477Z,30.37
2019-05-28T17:40:04.433Z,28.73
2019-05-28T17:42:31.561Z,24.50
2019-05-28T17:44:58.680Z,30.63
2019-05-28T17:47:25.758Z,54.90
2019-05-28T17:49:52.923Z,28.00
2019-05-28T17:52:19.988Z,20.67
2019-05-28T17:54:47.048Z,23.30
2019-05-28T17:57:14.108Z,23.07
2019-05-28T17:59:41.268Z,17.57
2019-05-28T18:02:08.328Z,18.57
2019-05-28T18:04:35.388Z,19.00
2019-05-28T18:07:02.669Z,20.23
2019-05-28T18:09:29.740Z,20.33
2019-05-28T18:11:56.818Z,25.77
2019-05-28T18:14:23.989Z,24.00
2019-05-28T18:16:51.602Z,20.23
2019-05-28T18:19:18.744Z,17.93
2019-05-28T18:21:45.806Z,18.43
2019-05-28T18:24:12.857Z,17.43
2019-05-28T18:26:39.928Z,17.53
2019-05-28T18:29:08.302Z,18.93
2019-05-28T18:31:35.369Z,15.53
2019-05-28T18:34:02.774Z,15.37
2019-05-28T18:36:29.832Z,15.33
2019-05-28T18:38:56.896Z,14.57
2019-05-28T18:41:25.264Z,15.70
2019-05-28T18:43:52.346Z,16.90
2019-05-28T18:46:19.852Z,22.77
2019-05-28T18:48:46.924Z,17.77
2019-05-28T18:51:14.005Z,22.10
2019-05-28T18:53:41.064Z,16.87
2019-05-28T18:56:17.145Z,18.23
2019-05-28T18:58:37.211Z,16.80
2019-05-28T19:01:04.472Z,18.30
2019-05-28T19:04:05.233Z,19.13
2019-05-28T19:06:32.392Z,21.90
2019-05-28T19:08:59.472Z,17.47
2019-05-28T19:11:37.533Z,21.07
2019-05-28T19:13:55.504Z,19.30
2019-05-28T19:16:22.589Z,17.70
2019-05-28T19:18:49.640Z,16.50
2019-05-28T19:21:16.720Z,16.33
2019-05-28T19:23:43.803Z,17.93
2019-05-28T19:26:10.956Z,18.47
2019-05-28T19:28:38.008Z,17.73
2019-05-28T19:31:06.007Z,21.33
2019-05-28T19:33:33.064Z,17.57
2019-05-28T19:36:00.832Z,11.83
2019-05-28T19:38:44.609Z,12.60
2019-05-28T19:40:57.569Z,10.47
2019-05-28T19:43:24.686Z,7.57
2019-05-28T19:45:51.824Z,7.97
2019-05-28T19:48:19.266Z,8.47
2019-05-28T19:50:46.432Z,7.97
2019-05-28T19:53:13.502Z,6.13
2019-05-28T19:55:40.776Z,6.30
2019-05-28T19:58:07.867Z,5.83
2019-05-28T20:00:35.135Z,5.60
2019-05-28T20:03:02.292Z,5.13
2019-05-28T20:05:29.362Z,6.37
2019-05-28T20:07:56.445Z,5.00
2019-05-28T20:10:23.736Z,5.60
2019-05-28T20:12:50.807Z,5.97
2019-05-28T20:15:19.947Z,5.77
2019-05-28T20:17:48.459Z,5.97
2019-05-28T20:20:16.161Z,7.37
2019-05-28T20:22:43.558Z,6.37
2019-05-28T20:25:12.417Z,6.13
2019-05-28T20:27:39.495Z,6.03
2019-05-28T20:30:14.168Z,6.90
2019-05-28T20:32:42.291Z,7.10
2019-05-28T20:35:09.760Z,7.27
2019-05-28T20:37:37.237Z,7.63
2019-05-28T20:40:06.557Z,7.53
2019-05-28T20:42:35.774Z,7.30
2019-05-28T20:45:04.290Z,6.90
2019-05-28T20:47:31.569Z,7.77
2019-05-28T20:49:58.626Z,6.33
2019-05-28T20:52:26.065Z,7.23
2019-05-28T20:54:53.136Z,7.13
2019-05-28T20:57:20.295Z,6.93
2019-05-28T20:59:47.372Z,7.13
2019-05-28T21:02:14.451Z,7.27
2019-05-28T21:04:41.835Z,7.23
2019-05-28T21:07:09.164Z,7.07
2019-05-28T21:09:36.235Z,7.97
2019-05-28T21:12:03.853Z,6.83
2019-05-28T21:14:30.936Z,7.73
2019-05-28T21:16:59.180Z,7.70
2019-05-28T21:19:26.636Z,7.67
2019-05-28T21:21:53.764Z,7.17
2019-05-28T21:24:20.961Z,7.43
2019-05-28T21:26:48.020Z,6.80
2019-05-28T21:29:15.076Z,6.47
2019-05-28T21:31:42.136Z,6.27
2019-05-28T21:34:09.197Z,6.93
2019-05-28T21:36:36.265Z,6.10
2019-05-28T21:39:05.930Z,6.87
2019-05-28T21:41:33.019Z,6.70
2019-05-28T21:44:00.171Z,6.50
2019-05-28T21:46:27.248Z,6.93
2019-05-28T21:48:54.469Z,6.10
2019-05-28T21:51:21.775Z,6.43
2019-05-28T21:53:48.844Z,6.33
2019-05-28T21:56:15.911Z,6.60
2019-05-28T21:58:44.383Z,6.33
2019-05-28T22:01:16.004Z,6.97
2019-05-28T22:03:43.055Z,7.00
2019-05-28T22:06:10.215Z,7.43
2019-05-28T22:08:37.404Z,6.30
2019-05-28T22:11:04.467Z,6.63
2019-05-28T22:13:31.576Z,5.73
2019-05-28T22:15:58.626Z,6.47
2019-05-28T22:18:25.787Z,6.33
2019-05-28T22:20:52.944Z,6.37
2019-05-28T22:23:20.100Z,6.20
2019-05-28T22:25:47.181Z,5.87
2019-05-28T22:28:14.248Z,6.47
2019-05-28T22:30:41.408Z,6.67
2019-05-28T22:33:08.568Z,5.83
2019-05-28T22:35:35.632Z,6.57
2019-05-28T22:38:03.700Z,6.07
2019-05-28T22:40:30.759Z,5.97
2019-05-28T22:42:58.604Z,6.13
2019-05-28T22:45:26.004Z,5.83
2019-05-28T22:47:53.073Z,6.60
2019-05-28T22:50:23.291Z,6.40
2019-05-28T22:52:49.725Z,6.50
2019-05-28T22:55:16.788Z,6.77
2019-05-28T22:57:43.844Z,7.00
2019-05-28T23:00:11.724Z,7.53
2019-05-28T23:02:38.783Z,6.63
2019-05-28T23:05:07.243Z,7.10
2019-05-28T23:07:34.599Z,6.83
2019-05-28T23:10:01.865Z,6.67
2019-05-28T23:12:28.932Z,6.47
2019-05-28T23:14:55.995Z,6.77
2019-05-28T23:17:23.048Z,6.37
2019-05-28T23:19:50.127Z,7.00
2019-05-28T23:22:17.196Z,6.63
2019-05-28T23:24:44.250Z,6.90
2019-05-28T23:27:11.654Z,6.23
2019-05-28T23:29:38.794Z,6.67
2019-05-28T23:32:06.198Z,6.90
2019-05-28T23:34:33.719Z,6.17
2019-05-28T23:37:00.780Z,6.67
2019-05-28T23:39:27.852Z,6.20
2019-05-28T23:41:54.912Z,6.27
2019-05-28T23:44:21.996Z,6.17
2019-05-28T23:46:49.039Z,6.03
2019-05-28T23:49:16.307Z,5.87
2019-05-28T23:51:43.365Z,6.33
2019-05-28T23:54:11.721Z,6.57
2019-05-28T23:56:40.411Z,6.53
2019-05-28T23:59:07.740Z,6.53
